Time;durP1;ratioP1;P1;durP2;ratioP2;P2;SDS_P1;SDS_P2;PMS_P1;PMS_P2;Temp;Humidity;BMP_temperature;BMP_pressure;BME280_temperature;BME280_humidity;BME280_pressure;Samples;Min_cycle;Max_cycle;Signal;HPM_P1;HPM_P2
2022/01/19 00:01:53;;;;;;;0.00;0.00;;;4.20;87.50;;;;;;4163369;28;20045;-55
2022/01/19 00:04:15;;;;;;;0.00;0.00;;;4.20;87.50;;;;;;4147074;28;20048;-57
2022/01/19 00:06:37;;;;;;;0.00;0.00;;;4.20;87.50;;;;;;4147462;28;20064;-55
2022/01/19 00:09:00;;;;;;;0.00;0.00;;;4.20;87.50;;;;;;4147422;28;20172;-57
2022/01/19 00:11:22;;;;;;;0.00;0.00;;;4.10;87.80;;;;;;4146974;28;20077;-58
2022/01/19 00:13:45;;;;;;;0.00;0.00;;;4.20;88.00;;;;;;4147195;28;20076;-57
2022/01/19 00:16:07;;;;;;;0.00;0.00;;;4.10;87.90;;;;;;4146903;28;20049;-57
2022/01/19 00:18:30;;;;;;;0.00;0.00;;;4.10;88.10;;;;;;4163034;28;20053;-55
2022/01/19 00:20:54;;;;;;;0.00;0.00;;;4.00;88.30;;;;;;4163341;28;20049;-55
2022/01/19 00:23:18;;;;;;;0.00;0.00;;;3.90;88.70;;;;;;4163479;28;20118;-58
2022/01/19 00:25:41;;;;;;;0.00;0.00;;;3.80;89.10;;;;;;4163589;28;20050;-55
2022/01/19 00:28:04;;;;;;;0.00;0.00;;;3.80;89.30;;;;;;4163276;28;20053;-57
2022/01/19 00:30:27;;;;;;;0.00;0.00;;;3.90;89.20;;;;;;4162997;28;20508;-54
2022/01/19 00:32:50;;;;;;;0.00;0.00;;;3.90;89.10;;;;;;4163226;28;20068;-56
2022/01/19 00:35:13;;;;;;;0.00;0.00;;;3.90;89.10;;;;;;4149701;28;20125;-56
2022/01/19 00:37:37;;;;;;;0.00;0.00;;;3.80;88.90;;;;;;4149468;28;20123;-57
2022/01/19 00:39:59;;;;;;;0.00;0.00;;;3.80;88.90;;;;;;4163293;28;20050;-58
2022/01/19 00:42:22;;;;;;;0.00;0.00;;;3.80;89.00;;;;;;4162566;28;20053;-54
2022/01/19 00:44:45;;;;;;;0.00;0.00;;;3.80;89.10;;;;;;4149578;28;20565;-55
2022/01/19 00:47:08;;;;;;;0.00;0.00;;;3.80;88.90;;;;;;4163043;28;20453;-54
2022/01/19 00:49:30;;;;;;;0.00;0.00;;;3.70;88.90;;;;;;4163091;28;20497;-57
2022/01/19 00:51:52;;;;;;;0.00;0.00;;;3.60;89.10;;;;;;4162829;28;20072;-56
2022/01/19 00:54:16;;;;;;;0.00;0.00;;;3.50;89.30;;;;;;4162376;28;20057;-57
2022/01/19 00:56:38;;;;;;;0.00;0.00;;;3.40;89.60;;;;;;4162909;28;20044;-58
2022/01/19 00:59:00;;;;;;;0.00;0.00;;;3.40;90.10;;;;;;4149007;28;20190;-57
2022/01/19 01:01:23;;;;;;;0.00;0.00;;;3.50;90.10;;;;;;4149201;28;20045;-53
2022/01/19 01:03:47;;;;;;;0.00;0.00;;;3.60;89.90;;;;;;4162680;28;20037;-57
2022/01/19 01:06:11;;;;;;;0.00;0.00;;;3.50;89.50;;;;;;4163470;28;20140;-60
2022/01/19 01:08:41;;;;;;;0.00;0.00;;;3.40;89.80;;;;;;4162641;28;20466;-58
2022/01/19 01:11:05;;;;;;;0.00;0.00;;;3.30;89.90;;;;;;4162379;28;20033;-55
2022/01/19 01:15:26;;;;;;;0.00;0.00;;;3.30;90.00;;;;;;4163473;28;20053;-57
2022/01/19 01:16:40;;;;;;;0.00;0.00;;;3.20;90.00;;;;;;4162314;28;20399;-56
2022/01/19 01:19:06;;;;;;;0.00;0.00;;;3.10;90.20;;;;;;4162427;28;20045;-55
2022/01/19 01:21:36;;;;;;;0.00;0.00;;;3.00;90.10;;;;;;4162416;28;20527;-59
2022/01/19 01:24:13;;;;;;;0.00;0.00;;;2.90;90.30;;;;;;4163226;28;20085;-53
2022/01/19 01:26:46;;;;;;;0.00;0.00;;;2.90;90.40;;;;;;4163595;28;20045;-58
2022/01/19 01:29:09;;;;;;;0.00;0.00;;;2.90;90.60;;;;;;4159926;28;20053;-57
2022/01/19 01:31:33;;;;;;;0.00;0.00;;;2.90;90.60;;;;;;4148590;28;20128;-58
2022/01/19 01:33:59;;;;;;;0.00;0.00;;;2.80;90.70;;;;;;4162162;28;20558;-58
2022/01/19 01:36:30;;;;;;;0.00;0.00;;;2.80;90.80;;;;;;4149107;28;20041;-56
2022/01/19 01:38:56;;;;;;;0.00;0.00;;;2.80;90.80;;;;;;4163368;28;20073;-56
2022/01/19 01:41:23;;;;;;;0.00;0.00;;;3.00;90.80;;;;;;4163317;28;20529;-54
2022/01/19 01:44:24;;;;;;;0.00;0.00;;;3.00;91.00;;;;;;4162667;28;20053;-54
2022/01/19 01:46:54;;;;;;;0.00;0.00;;;3.00;90.80;;;;;;4163167;28;20503;-56
2022/01/19 01:49:25;;;;;;;0.00;0.00;;;3.10;90.70;;;;;;4162045;28;20045;-57
2022/01/19 01:54:41;;;;;;;0.00;0.00;;;2.90;90.90;;;;;;4150090;28;20073;-55
2022/01/19 01:57:20;;;;;;;0.00;0.00;;;2.80;91.10;;;;;;4149360;28;20103;-55
2022/01/19 02:00:05;;;;;;;0.00;0.00;;;2.80;91.30;;;;;;4162094;28;20045;-58
2022/01/19 02:02:47;;;;;;;0.00;0.00;;;2.60;91.40;;;;;;4157924;28;20050;-52
2022/01/19 02:05:14;;;;;;;0.00;0.00;;;2.60;91.70;;;;;;4146682;28;20081;-55
2022/01/19 02:08:00;;;;;;;0.00;0.00;;;2.60;91.70;;;;;;4145508;28;20049;-58
2022/01/19 02:10:43;;;;;;;0.00;0.00;;;2.70;91.60;;;;;;4147032;28;20078;-58
2022/01/19 02:22:12;;;;;;;0.00;0.00;;;2.60;91.70;;;;;;4175704;28;20128;-56
2022/01/19 02:24:49;;;;;;;0.00;0.00;;;2.50;91.80;;;;;;4149574;28;20444;-54
2022/01/19 02:40:51;;;;;;;0.00;0.00;;;2.80;91.40;;;;;;4140550;28;20102;-55
2022/01/19 02:43:21;;;;;;;0.00;0.00;;;2.90;91.20;;;;;;4167018;28;20099;-55
2022/01/19 02:51:07;;;;;;;0.00;0.00;;;3.10;90.80;;;;;;4166668;28;20136;-58
2022/01/19 02:53:32;;;;;;;0.00;0.00;;;3.00;90.70;;;;;;4161173;28;20611;-55
2022/01/19 02:55:54;;;;;;;0.00;0.00;;;2.90;90.80;;;;;;4166956;28;20057;-58
2022/01/19 02:58:20;;;;;;;0.00;0.00;;;2.80;90.90;;;;;;4166559;28;20053;-62
2022/01/19 03:08:53;;;;;;;0.00;0.00;;;3.00;90.90;;;;;;4152782;28;19929;-56
2022/01/19 03:11:19;;;;;;;0.00;0.00;;;3.20;90.70;;;;;;4152968;28;20054;-58
2022/01/19 03:13:44;;;;;;;0.00;0.00;;;3.30;90.50;;;;;;4166963;28;20447;-59
2022/01/19 03:16:07;;;;;;;0.00;0.00;;;3.30;90.30;;;;;;4139609;28;20145;-57
2022/01/19 03:18:31;;;;;;;0.00;0.00;;;3.30;90.30;;;;;;4152363;28;20108;-58
2022/01/19 03:20:54;;;;;;;0.00;0.00;;;3.30;90.40;;;;;;4178716;28;20053;-57
2022/01/19 03:23:21;;;;;;;0.00;0.00;;;3.30;90.10;;;;;;4153090;28;20692;-59
2022/01/19 03:25:49;;;;;;;0.00;0.00;;;3.30;90.10;;;;;;4169201;28;20057;-59
2022/01/19 03:28:12;;;;;;;0.00;0.00;;;3.30;90.10;;;;;;4182844;28;20080;-59
2022/01/19 03:30:35;;;;;;;0.00;0.00;;;3.40;90.00;;;;;;4182837;28;20037;-59
2022/01/19 03:33:00;;;;;;;0.00;0.00;;;3.40;89.90;;;;;;4182353;28;20139;-56
2022/01/19 03:35:23;;;;;;;0.00;0.00;;;3.30;89.80;;;;;;4169858;28;20053;-58
2022/01/19 03:37:45;;;;;;;0.00;0.00;;;3.30;89.60;;;;;;4169270;28;20129;-59
2022/01/19 03:40:08;;;;;;;0.00;0.00;;;3.40;89.40;;;;;;4169250;28;20049;-57
2022/01/19 03:42:31;;;;;;;0.00;0.00;;;3.40;89.00;;;;;;4182370;28;20713;-56
2022/01/19 03:45:01;;;;;;;0.00;0.00;;;3.40;88.90;;;;;;4171938;28;20137;-56
2022/01/19 03:47:26;;;;;;;0.00;0.00;;;3.40;88.80;;;;;;4144038;28;20089;-56
2022/01/19 03:49:50;;;;;;;0.00;0.00;;;3.40;88.60;;;;;;4177386;28;20041;-55
2022/01/19 03:52:12;;;;;;;0.00;0.00;;;3.40;88.40;;;;;;4132799;28;20500;-55
2022/01/19 03:54:42;;;;;;;0.00;0.00;;;3.40;88.70;;;;;;4147476;28;20050;-58
2022/01/19 03:57:05;;;;;;;0.00;0.00;;;3.30;87.90;;;;;;4141074;28;20058;-57
2022/01/19 03:59:28;;;;;;;0.00;0.00;;;3.30;87.60;;;;;;4163923;28;20504;-57
2022/01/19 04:01:52;;;;;;;0.00;0.00;;;3.30;87.70;;;;;;4163616;28;20127;-58
2022/01/19 04:07:00;;;;;;;0.00;0.00;;;3.20;87.50;;;;;;4163784;28;20406;-58
2022/01/19 04:09:23;;;;;;;0.00;0.00;;;3.20;87.40;;;;;;4150115;28;20407;-57
2022/01/19 04:11:48;;;;;;;0.00;0.00;;;3.20;87.40;;;;;;4163307;28;20069;-55
2022/01/19 04:14:21;;;;;;;0.00;0.00;;;3.20;87.30;;;;;;4163429;28;20093;-59
2022/01/19 04:16:45;;;;;;;0.00;0.00;;;3.20;87.30;;;;;;4163510;28;20041;-56
2022/01/19 04:19:53;;;;;;;0.00;0.00;;;3.20;87.20;;;;;;4149789;28;20057;-56
2022/01/19 04:21:59;;;;;;;0.00;0.00;;;3.10;87.10;;;;;;4156698;28;20939;-59
2022/01/19 04:24:22;;;;;;;0.00;0.00;;;3.20;87.10;;;;;;4149384;28;20054;-60
2022/01/19 04:26:46;;;;;;;0.00;0.00;;;3.20;87.00;;;;;;4149444;28;20042;-58
2022/01/19 04:29:09;;;;;;;0.00;0.00;;;3.20;87.10;;;;;;4163351;28;20102;-58
2022/01/19 04:31:33;;;;;;;0.00;0.00;;;3.10;87.10;;;;;;4166929;28;20049;-55
2022/01/19 04:34:01;;;;;;;0.00;0.00;;;3.10;87.20;;;;;;4163098;28;20072;-56
2022/01/19 04:44:33;;;;;;;0.00;0.00;;;3.10;87.00;;;;;;4163265;28;20531;-58
2022/01/19 05:03:49;;;;;;;0.00;0.00;;;3.00;86.80;;;;;;4160269;28;20159;-56
2022/01/19 05:06:22;;;;;;;;;;;2.90;86.70;;;;;;4147811;28;20049;-58
2022/01/19 05:08:56;;;;;;;0.00;0.00;;;2.90;86.80;;;;;;4176632;28;19997;-58
2022/01/19 05:14:01;;;;;;;0.00;0.00;;;2.90;86.80;;;;;;4162615;28;20131;-57
2022/01/19 05:16:25;;;;;;;0.00;0.00;;;3.00;86.70;;;;;;4176100;28;20135;-57
2022/01/19 05:18:49;;;;;;;0.00;0.00;;;2.90;86.80;;;;;;4157632;28;20048;-59
2022/01/19 05:21:11;;;;;;;0.00;0.00;;;2.90;87.00;;;;;;4153989;28;20054;-59
2022/01/19 05:24:06;;;;;;;;;;;2.90;87.00;;;;;;4146556;28;20046;-58
2022/01/19 05:26:35;;;;;;;0.00;0.00;;;2.90;87.00;;;;;;4176268;28;20390;-56
2022/01/19 05:28:58;;;;;;;0.00;0.00;;;2.90;87.00;;;;;;4162943;28;20121;-56
2022/01/19 05:31:21;;;;;;;0.00;0.00;;;2.90;86.80;;;;;;4162224;28;20104;-59
2022/01/19 05:33:43;;;;;;;0.00;0.00;;;2.90;86.90;;;;;;4162522;28;20478;-58
2022/01/19 05:36:07;;;;;;;0.00;0.00;;;2.80;87.20;;;;;;4162625;28;20068;-56
2022/01/19 05:38:53;;;;;;;0.00;0.00;;;2.80;87.20;;;;;;4148480;28;20085;-56
2022/01/19 05:41:33;;;;;;;0.00;0.00;;;2.80;87.40;;;;;;4162268;28;20053;-57
2022/01/19 05:43:57;;;;;;;0.00;0.00;;;2.80;87.40;;;;;;4162412;28;20416;-57
2022/01/19 05:46:21;;;;;;;0.00;0.00;;;2.80;87.40;;;;;;4148391;28;20058;-59
2022/01/19 05:48:44;;;;;;;0.00;0.00;;;2.80;87.40;;;;;;4148929;28;20129;-59
2022/01/19 05:51:07;;;;;;;0.00;0.00;;;2.80;87.40;;;;;;4162200;28;20041;-59
2022/01/19 05:53:30;;;;;;;0.00;0.00;;;2.80;87.50;;;;;;4148610;28;20133;-58
2022/01/19 05:55:59;;;;;;;0.00;0.00;;;2.80;87.50;;;;;;4148601;28;20049;-58
2022/01/19 05:58:21;;;;;;;0.00;0.00;;;2.80;87.50;;;;;;4160364;28;20057;-58
2022/01/19 06:00:48;;;;;;;0.00;0.00;;;2.80;87.50;;;;;;4150838;28;20045;-59
2022/01/19 06:03:10;;;;;;;0.00;0.00;;;2.70;87.40;;;;;;4161979;28;20057;-57
2022/01/19 06:05:52;;;;;;;0.00;0.00;;;2.70;87.70;;;;;;4176082;28;20056;-57
2022/01/19 06:10:54;;;;;;;0.00;0.00;;;2.80;87.60;;;;;;4161895;28;20041;-56
2022/01/19 06:13:18;;;;;;;0.00;0.00;;;2.80;87.70;;;;;;4148402;28;20053;-53
2022/01/19 06:15:42;;;;;;;0.00;0.00;;;2.70;87.50;;;;;;4161333;28;20076;-54
2022/01/19 06:18:04;;;;;;;0.00;0.00;;;2.70;87.30;;;;;;4132832;28;20054;-59
2022/01/19 06:20:27;;;;;;;0.00;0.00;;;2.70;87.50;;;;;;4161219;28;20041;-57
2022/01/19 06:22:49;;;;;;;0.00;0.00;;;2.60;87.60;;;;;;4161890;28;20061;-59
2022/01/19 06:25:12;;;;;;;0.00;0.00;;;2.60;87.60;;;;;;4175930;28;20041;-57
2022/01/19 06:27:35;;;;;;;0.00;0.00;;;2.60;87.60;;;;;;4161928;28;20148;-57
2022/01/19 06:29:57;;;;;;;0.00;0.00;;;2.60;87.80;;;;;;4175963;28;20449;-59
2022/01/19 06:32:19;;;;;;;0.00;0.00;;;2.60;87.80;;;;;;4134341;28;20049;-60
2022/01/19 06:34:42;;;;;;;0.00;0.00;;;2.60;87.90;;;;;;4161739;28;20041;-59
2022/01/19 06:37:18;;;;;;;0.00;0.00;;;2.60;87.80;;;;;;4161867;28;20430;-59
2022/01/19 06:39:46;;;;;;;0.00;0.00;;;2.60;87.70;;;;;;4161878;28;20491;-55
2022/01/19 06:42:09;;;;;;;0.00;0.00;;;2.60;87.80;;;;;;4161625;28;20504;-57
2022/01/19 06:44:32;;;;;;;0.00;0.00;;;2.70;88.00;;;;;;4147578;28;20089;-56
2022/01/19 06:46:54;;;;;;;0.00;0.00;;;2.70;88.20;;;;;;4161969;28;20072;-56
2022/01/19 06:49:18;;;;;;;0.00;0.00;;;2.70;88.20;;;;;;4166427;28;20084;-55
2022/01/19 06:51:40;;;;;;;0.00;0.00;;;2.70;88.40;;;;;;4157371;28;20137;-58
2022/01/19 06:54:03;;;;;;;0.00;0.00;;;2.80;88.50;;;;;;4161782;28;20400;-59
2022/01/19 06:56:29;;;;;;;0.00;0.00;;;2.80;88.40;;;;;;4147639;28;20045;-59
2022/01/19 06:59:12;;;;;;;0.00;0.00;;;2.80;88.60;;;;;;4139585;28;20049;-59
2022/01/19 07:01:50;;;;;;;0.00;0.00;;;2.70;90.00;;;;;;4144993;28;20176;-56
2022/01/19 07:04:48;;;;;;;0.00;0.00;;;2.80;90.10;;;;;;4147411;28;20038;-59
2022/01/19 07:07:19;;;;;;;0.00;0.00;;;2.90;90.20;;;;;;4161568;28;20053;-59
2022/01/19 07:09:52;;;;;;;0.00;0.00;;;2.90;90.30;;;;;;4161420;28;20084;-59
2022/01/19 07:12:14;;;;;;;0.00;0.00;;;3.00;90.50;;;;;;4144626;28;20578;-59
2022/01/19 07:14:37;;;;;;;0.00;0.00;;;3.10;90.40;;;;;;4144952;28;20447;-58
2022/01/19 07:16:59;;;;;;;0.00;0.00;;;3.20;90.30;;;;;;4145374;28;20508;-57
2022/01/19 07:19:22;;;;;;;0.00;0.00;;;3.30;90.20;;;;;;4144944;28;20054;-56
2022/01/19 07:21:45;;;;;;;0.00;0.00;;;3.40;90.20;;;;;;4158771;28;20474;-57
2022/01/19 07:24:07;;;;;;;0.00;0.00;;;3.40;90.10;;;;;;4160878;28;20049;-55
2022/01/19 07:26:30;;;;;;;0.00;0.00;;;3.40;90.10;;;;;;4148799;28;20604;-58
2022/01/19 07:28:54;;;;;;;0.00;0.00;;;3.50;90.00;;;;;;4164742;28;20503;-54
2022/01/19 07:31:16;;;;;;;0.00;0.00;;;3.50;89.90;;;;;;4164266;28;20045;-56
2022/01/19 07:33:39;;;;;;;0.00;0.00;;;3.60;90.00;;;;;;4164225;28;20539;-57
2022/01/19 07:36:02;;;;;;;0.00;0.00;;;3.60;89.80;;;;;;4172347;28;20396;-58
2022/01/19 07:38:26;;;;;;;0.00;0.00;;;3.70;89.50;;;;;;4166721;28;20527;-57
2022/01/19 07:40:50;;;;;;;0.00;0.00;;;3.70;89.50;;;;;;4180822;28;20044;-59
2022/01/19 07:43:13;;;;;;;0.00;0.00;;;3.80;89.20;;;;;;4180927;28;20051;-59
2022/01/19 07:46:07;;;;;;;0.00;0.00;;;3.80;89.30;;;;;;4141592;28;20041;-60
2022/01/19 07:48:46;;;;;;;0.00;0.00;;;3.90;89.20;;;;;;4152090;28;20203;-61
2022/01/19 07:51:38;;;;;;;0.00;0.00;;;3.90;89.00;;;;;;4178360;28;20049;-60
2022/01/19 07:54:10;;;;;;;;;;;4.00;88.70;;;;;;4180910;28;20041;-60
2022/01/19 07:56:51;;;;;;;0.00;0.00;;;4.10;88.50;;;;;;4182454;28;19924;-60
2022/01/19 07:59:32;;;;;;;0.00;0.00;;;4.20;88.40;;;;;;4180519;28;20533;-60
2022/01/19 08:02:02;;;;;;;0.00;0.00;;;4.20;87.90;;;;;;4177325;28;20052;-58
2022/01/19 08:04:43;;;;;;;0.00;0.00;;;4.00;88.70;;;;;;4163492;28;20045;-59
2022/01/19 08:07:10;;;;;;;0.00;0.00;;;4.20;88.60;;;;;;4163872;28;20064;-59
2022/01/19 08:09:33;;;;;;;0.00;0.00;;;4.50;88.60;;;;;;4163753;28;20438;-54
2022/01/19 08:11:56;;;;;;;0.00;0.00;;;4.70;87.40;;;;;;4163452;28;20588;-59
2022/01/19 08:14:24;;;;;;;0.00;0.00;;;4.90;87.40;;;;;;4163458;28;20064;-60
2022/01/19 08:16:47;;;;;;;0.00;0.00;;;5.20;86.90;;;;;;4163846;28;20069;-60
2022/01/19 08:19:10;;;;;;;0.00;0.00;;;5.50;86.30;;;;;;4163595;28;20140;-59
2022/01/19 08:21:33;;;;;;;0.00;0.00;;;5.50;84.80;;;;;;4149703;28;20507;-59
2022/01/19 08:24:04;;;;;;;0.00;0.00;;;5.70;85.80;;;;;;4164400;28;20504;-60
2022/01/19 08:26:28;;;;;;;0.00;0.00;;;6.10;84.60;;;;;;4177106;28;20045;-61
2022/01/19 08:28:54;;;;;;;0.00;0.00;;;6.40;83.60;;;;;;4177597;28;20048;-60
2022/01/19 08:31:17;;;;;;;0.00;0.00;;;6.50;81.80;;;;;;4177070;28;20049;-61
2022/01/19 08:33:59;;;;;;;0.00;0.00;;;6.60;82.30;;;;;;4163491;28;20057;-60
2022/01/19 08:36:42;;;;;;;0.00;0.00;;;6.90;81.60;;;;;;4152120;28;20099;-60
2022/01/19 08:39:11;;;;;;;0.00;0.00;;;7.30;80.80;;;;;;4163042;28;20052;-61
2022/01/19 08:41:37;;;;;;;0.00;0.00;;;7.40;79.20;;;;;;4149343;28;20050;-60
2022/01/19 08:43:59;;;;;;;0.00;0.00;;;7.80;79.00;;;;;;4163280;28;20505;-57
2022/01/19 08:46:22;;;;;;;0.00;0.00;;;8.20;77.70;;;;;;4168506;28;20053;-60
2022/01/19 08:49:19;;;;;;;0.00;0.00;;;8.30;76.10;;;;;;4163188;28;20060;-61
2022/01/19 08:52:05;;;;;;;0.00;0.00;;;8.20;76.00;;;;;;4147267;28;20057;-59
2022/01/19 08:54:34;;;;;;;0.00;0.00;;;8.50;75.40;;;;;;4166097;28;20044;-56
2022/01/19 08:57:01;;;;;;;0.00;0.00;;;8.40;73.20;;;;;;4175011;28;20045;-58
2022/01/19 08:59:24;;;;;;;0.00;0.00;;;7.90;73.30;;;;;;4203857;28;20054;-59
2022/01/19 09:01:46;;;;;;;0.00;0.00;;;7.50;74.00;;;;;;4183181;28;20163;-60
2022/01/19 09:04:09;;;;;;;0.00;0.00;;;7.20;74.40;;;;;;4176854;28;20078;-58
2022/01/19 09:06:31;;;;;;;0.00;0.00;;;7.10;75.10;;;;;;4162207;28;20140;-59
2022/01/19 09:08:54;;;;;;;0.00;0.00;;;7.20;75.20;;;;;;4163174;28;20057;-58
2022/01/19 09:11:16;;;;;;;0.00;0.00;;;7.40;74.50;;;;;;4162615;28;20099;-59
2022/01/19 09:13:39;;;;;;;0.00;0.00;;;7.30;73.70;;;;;;4150967;28;20685;-59
2022/01/19 09:16:02;;;;;;;0.00;0.00;;;7.10;74.50;;;;;;4146251;28;20062;-59
2022/01/19 09:18:25;;;;;;;0.00;0.00;;;7.00;74.40;;;;;;4162531;28;20070;-60
2022/01/19 09:20:48;;;;;;;0.00;0.00;;;6.90;75.10;;;;;;4162321;28;20128;-61
2022/01/19 09:23:11;;;;;;;0.00;0.00;;;7.10;74.90;;;;;;4154365;28;20048;-60
2022/01/19 09:25:33;;;;;;;0.00;0.00;;;7.10;75.40;;;;;;4157582;28;20392;-61
2022/01/19 09:27:56;;;;;;;0.00;0.00;;;7.20;74.80;;;;;;4162767;28;20073;-60
2022/01/19 09:30:24;;;;;;;0.00;0.00;;;7.00;74.90;;;;;;4162317;28;20505;-60
2022/01/19 09:32:55;;;;;;;0.00;0.00;;;6.60;75.50;;;;;;4162345;28;20585;-61
2022/01/19 09:35:23;;;;;;;0.00;0.00;;;6.40;76.90;;;;;;4162711;28;20530;-60
2022/01/19 09:37:46;;;;;;;0.00;0.00;;;6.30;76.90;;;;;;4135917;28;20428;-61
2022/01/19 09:40:23;;;;;;;0.00;0.00;;;6.30;77.50;;;;;;4147622;28;20460;-60
2022/01/19 09:42:48;;;;;;;0.00;0.00;;;6.20;77.30;;;;;;4190262;28;20153;-60
2022/01/19 09:45:11;;;;;;;0.00;0.00;;;5.90;78.30;;;;;;4162717;28;20041;-59
2022/01/19 09:47:33;;;;;;;0.00;0.00;;;5.90;78.70;;;;;;4162471;28;20053;-58
2022/01/19 09:49:56;;;;;;;0.00;0.00;;;6.00;78.80;;;;;;4147705;28;20048;-60
2022/01/19 09:52:19;;;;;;;0.00;0.00;;;6.40;78.70;;;;;;4177875;28;20386;-61
2022/01/19 09:54:41;;;;;;;0.00;0.00;;;6.40;78.60;;;;;;4153076;28;20049;-62
2022/01/19 09:57:05;;;;;;;0.00;0.00;;;6.40;78.10;;;;;;4169313;28;20099;-60
2022/01/19 09:59:29;;;;;;;0.00;0.00;;;6.50;78.00;;;;;;4168065;28;20713;-60
2022/01/19 10:01:57;;;;;;;0.00;0.00;;;6.70;77.60;;;;;;4174061;28;20056;-60
2022/01/19 10:04:25;;;;;;;0.00;0.00;;;6.90;77.10;;;;;;4175516;28;20056;-59
2022/01/19 10:06:48;;;;;;;0.00;0.00;;;6.90;76.60;;;;;;4161976;28;20049;-60
2022/01/19 10:09:10;;;;;;;0.00;0.00;;;6.90;76.70;;;;;;4167391;28;20128;-60
2022/01/19 10:17:03;;;;;;;0.00;0.00;;;7.10;76.10;;;;;;4177481;28;20077;-60
2022/01/19 10:19:36;;;;;;;0.00;0.00;;;6.90;76.10;;;;;;4191704;28;20132;-60
2022/01/19 10:22:13;;;;;;;0.00;0.00;;;6.80;76.30;;;;;;4191723;28;20056;-55
2022/01/19 10:25:04;;;;;;;0.00;0.00;;;6.70;76.80;;;;;;4177769;28;20135;-60
2022/01/19 10:27:29;;;;;;;0.00;0.00;;;6.60;76.80;;;;;;4181847;28;20063;-60
2022/01/19 10:29:55;;;;;;;0.00;0.00;;;6.60;76.80;;;;;;4148251;28;20057;-60
2022/01/19 10:32:23;;;;;;;0.00;0.00;;;6.70;76.90;;;;;;4162043;28;20129;-62
2022/01/19 10:34:45;;;;;;;0.00;0.00;;;6.60;76.80;;;;;;4164490;28;20425;-61
2022/01/19 10:37:09;;;;;;;0.00;0.00;;;6.60;76.90;;;;;;4178108;28;20045;-59
2022/01/19 10:39:46;;;;;;;0.00;0.00;;;6.50;76.50;;;;;;4192258;28;20419;-60
2022/01/19 10:42:17;;;;;;;0.00;0.00;;;6.10;77.30;;;;;;4191862;28;20397;-59
2022/01/19 10:44:41;;;;;;;0.00;0.00;;;6.20;78.70;;;;;;4177888;28;20037;-59
2022/01/19 10:47:43;;;;;;;0.00;0.00;;;7.00;78.30;;;;;;4178151;28;20387;-60
2022/01/19 10:50:08;;;;;;;0.00;0.00;;;8.10;75.60;;;;;;4171730;28;20045;-61
2022/01/19 10:52:37;;;;;;;0.00;0.00;;;8.90;73.20;;;;;;4144202;28;20463;-61
2022/01/19 10:55:02;;;;;;;0.00;0.00;;;9.30;72.40;;;;;;4138062;28;20060;-59
2022/01/19 10:57:27;;;;;;;0.00;0.00;;;9.90;70.10;;;;;;4164693;28;20056;-61
2022/01/19 11:00:12;;;;;;;0.00;0.00;;;9.80;68.80;;;;;;4177985;28;20064;-61
2022/01/19 11:02:38;;;;;;;0.00;0.00;;;10.20;67.10;;;;;;4167615;28;20457;-59
2022/01/19 11:05:01;;;;;;;0.00;0.00;;;10.40;66.20;;;;;;4181508;28;20048;-60
2022/01/19 11:07:23;;;;;;;0.00;0.00;;;10.50;64.80;;;;;;4181105;28;20107;-61
2022/01/19 11:09:57;;;;;;;0.00;0.00;;;10.90;65.20;;;;;;4195051;28;20111;-61
2022/01/19 11:12:21;;;;;;;0.00;0.00;;;11.60;63.50;;;;;;4180464;28;20048;-61
2022/01/19 11:14:45;;;;;;;0.00;0.00;;;12.20;62.00;;;;;;4174179;28;20099;-61
2022/01/19 11:17:27;;;;;;;0.00;0.00;;;12.70;60.70;;;;;;4192061;28;20120;-61
2022/01/19 11:19:50;;;;;;;0.00;0.00;;;12.40;58.70;;;;;;4194987;28;20059;-60
2022/01/19 11:22:21;;;;;;;0.00;0.00;;;12.40;58.80;;;;;;4176199;28;20123;-63
2022/01/19 11:25:07;;;;;;;0.00;0.00;;;12.90;58.00;;;;;;4178360;28;20597;-61
2022/01/19 11:27:45;;;;;;;0.00;0.00;;;13.40;56.00;;;;;;4167588;28;20549;-61
2022/01/19 11:30:16;;;;;;;0.00;0.00;;;13.80;55.50;;;;;;4161931;28;20049;-60
2022/01/19 11:32:39;;;;;;;0.00;0.00;;;14.20;54.20;;;;;;4191853;28;20098;-60
2022/01/19 11:35:03;;;;;;;0.00;0.00;;;14.40;53.50;;;;;;4164240;28;20041;-60
2022/01/19 11:37:42;;;;;;;0.00;0.00;;;13.90;52.80;;;;;;4136997;28;20060;-62
2022/01/19 11:40:08;;;;;;;0.00;0.00;;;14.00;53.40;;;;;;4164289;28;20657;-61
2022/01/19 11:42:30;;;;;;;0.00;0.00;;;14.70;52.40;;;;;;4163540;28;20129;-61
2022/01/19 11:44:53;;;;;;;0.00;0.00;;;15.10;51.50;;;;;;4149354;28;20556;-60
2022/01/19 11:47:21;;;;;;;0.00;0.00;;;15.30;50.30;;;;;;4163995;28;20076;-61
2022/01/19 11:50:04;;;;;;;0.00;0.00;;;14.90;49.90;;;;;;4163837;28;20059;-60
2022/01/19 11:52:49;;;;;;;0.00;0.00;;;13.90;51.00;;;;;;4163303;28;20068;-60
2022/01/19 11:55:22;;;;;;;0.00;0.00;;;12.70;52.90;;;;;;4163964;28;20045;-60
2022/01/19 11:57:46;;;;;;;0.00;0.00;;;11.80;54.70;;;;;;4150300;28;20132;-59
2022/01/19 12:00:20;;;;;;;0.00;0.00;;;10.20;57.40;;;;;;4150524;28;20049;-56
2022/01/19 12:02:58;;;;;;;0.00;0.00;;;8.80;61.20;;;;;;4152265;28;20041;-54
2022/01/19 12:05:41;;;;;;;0.00;0.00;;;8.60;62.70;;;;;;4163794;28;20049;-57
2022/01/19 12:08:42;;;;;;;0.00;0.00;;;8.40;64.00;;;;;;4163984;28;20208;-57
2022/01/19 12:11:23;;;;;;;0.00;0.00;;;8.60;64.00;;;;;;4177152;28;20163;-57
2022/01/19 12:14:17;;;;;;;0.00;0.00;;;8.80;63.20;;;;;;4149807;28;20049;-58
2022/01/19 12:17:15;;;;;;;0.00;0.00;;;8.90;63.00;;;;;;4150685;28;20499;-59
2022/01/19 12:19:42;;;;;;;0.00;0.00;;;8.70;63.70;;;;;;4163616;28;20104;-56
2022/01/19 12:22:17;;;;;;;0.00;0.00;;;8.60;64.10;;;;;;4163486;28;20636;-58
2022/01/19 12:24:53;;;;;;;0.00;0.00;;;8.10;65.40;;;;;;4163404;28;20054;-53
2022/01/19 12:27:16;;;;;;;0.00;0.00;;;8.10;65.40;;;;;;4163506;28;20084;-56
2022/01/19 12:29:45;;;;;;;0.00;0.00;;;8.10;65.60;;;;;;4163589;28;20137;-55
2022/01/19 12:32:16;;;;;;;0.00;0.00;;;8.10;66.00;;;;;;4171626;28;20057;-56
2022/01/19 12:34:45;;;;;;;0.00;0.00;;;8.00;66.40;;;;;;4162988;28;20486;-54
2022/01/19 12:37:11;;;;;;;0.00;0.00;;;7.70;67.50;;;;;;4163294;28;20415;-55
2022/01/19 12:39:39;;;;;;;0.00;0.00;;;7.70;67.90;;;;;;4177359;28;20312;-54
2022/01/19 12:42:27;;;;;;;0.00;0.00;;;7.70;68.20;;;;;;4149653;28;20108;-58
2022/01/19 12:44:55;;;;;;;0.00;0.00;;;7.50;69.40;;;;;;4163027;28;20057;-58
2022/01/19 12:49:50;;;;;;;;;;;7.70;68.80;;;;;;4163607;28;20591;-57
2022/01/19 12:52:16;;;;;;;0.00;0.00;;;7.70;68.50;;;;;;4176627;28;19920;-56
2022/01/19 12:54:38;;;;;;;0.00;0.00;;;7.70;68.50;;;;;;4149723;28;20049;-57
2022/01/19 12:57:04;;;;;;;0.00;0.00;;;7.90;68.10;;;;;;4162897;28;20081;-56
2022/01/19 12:59:26;;;;;;;0.00;0.00;;;7.90;68.10;;;;;;4163031;28;20052;-57
2022/01/19 13:01:49;;;;;;;0.00;0.00;;;7.60;68.80;;;;;;4162893;28;20788;-56
2022/01/19 13:04:30;;;;;;;0.00;0.00;;;7.50;69.50;;;;;;4162747;28;20049;-58
2022/01/19 13:07:19;;;;;;;0.00;0.00;;;7.60;70.10;;;;;;4171134;28;20128;-56
2022/01/19 13:12:54;;;;;;;0.00;0.00;;;7.80;70.00;;;;;;4156148;28;20069;-58
2022/01/19 13:15:17;;;;;;;0.00;0.00;;;7.80;70.10;;;;;;4161915;28;20053;-58
2022/01/19 13:17:46;;;;;;;0.00;0.00;;;7.80;70.10;;;;;;4175661;28;20037;-60
2022/01/19 13:20:21;;;;;;;0.00;0.00;;;7.90;70.60;;;;;;4174967;28;20091;-57
2022/01/19 13:22:55;;;;;;;0.00;0.00;;;8.00;70.30;;;;;;4178840;28;20134;-58
2022/01/19 13:25:26;;;;;;;0.00;0.00;;;8.20;70.10;;;;;;4192851;28;20093;-57
2022/01/19 13:27:51;;;;;;;0.00;0.00;;;8.20;70.00;;;;;;4178804;28;20045;-57
2022/01/19 13:30:15;;;;;;;0.00;0.00;;;8.30;70.00;;;;;;4178823;28;20056;-57
2022/01/19 13:32:39;;;;;;;0.00;0.00;;;8.30;70.10;;;;;;4192929;28;20048;-59
2022/01/19 13:35:04;;;;;;;0.00;0.00;;;8.30;70.20;;;;;;4178979;28;20359;-59
2022/01/19 13:37:37;;;;;;;0.00;0.00;;;8.30;70.40;;;;;;4192707;28;20052;-60
2022/01/19 13:40:16;;;;;;;0.00;0.00;;;8.40;70.20;;;;;;4178909;28;20052;-58
2022/01/19 13:42:43;;;;;;;0.00;0.00;;;8.40;70.30;;;;;;4178531;28;20601;-60
2022/01/19 13:45:14;;;;;;;0.00;0.00;;;8.30;70.40;;;;;;4172367;28;20080;-61
2022/01/19 13:48:19;;;;;;;0.00;0.00;;;8.30;70.50;;;;;;4179336;28;20052;-61
2022/01/19 13:50:39;;;;;;;0.00;0.00;;;8.20;70.70;;;;;;4161731;28;20103;-59
2022/01/19 13:53:02;;;;;;;0.00;0.00;;;8.20;70.90;;;;;;4176074;28;20076;-61
2022/01/19 13:55:24;;;;;;;0.00;0.00;;;8.20;71.10;;;;;;4162222;28;20419;-62
2022/01/19 13:57:48;;;;;;;0.00;0.00;;;8.20;70.90;;;;;;4161937;28;20136;-59
2022/01/19 14:00:13;;;;;;;0.00;0.00;;;8.20;71.00;;;;;;4175965;28;20068;-60
2022/01/19 14:02:36;;;;;;;0.00;0.00;;;8.20;71.20;;;;;;4147878;28;20048;-60
2022/01/19 14:05:18;;;;;;;0.00;0.00;;;8.30;71.20;;;;;;4162295;28;20092;-59
2022/01/19 14:07:46;;;;;;;0.00;0.00;;;8.20;71.30;;;;;;4175717;28;20064;-59
2022/01/19 14:10:14;;;;;;;0.00;0.00;;;8.20;71.70;;;;;;4175554;28;20387;-62
2022/01/19 14:12:37;;;;;;;0.00;0.00;;;8.10;72.00;;;;;;4176041;28;20056;-60
2022/01/19 14:15:01;;;;;;;0.00;0.00;;;8.00;72.40;;;;;;4161868;28;20057;-60
2022/01/19 14:17:33;;;;;;;0.00;0.00;;;7.90;72.50;;;;;;4161855;28;20069;-58
2022/01/19 14:19:57;;;;;;;0.00;0.00;;;7.70;73.40;;;;;;4177454;28;20074;-59
2022/01/19 14:22:20;;;;;;;0.00;0.00;;;7.60;73.70;;;;;;4177653;28;20079;-56
2022/01/19 14:24:47;;;;;;;0.00;0.00;;;7.70;73.70;;;;;;4192411;28;20518;-59
2022/01/19 14:27:32;;;;;;;0.00;0.00;;;7.70;73.60;;;;;;4192165;28;20063;-60